AirNav   Everest Fuels
 
 409 users online  

3J6 Davis Field Airport
Folkston, Georgia, USA

GOING TO FOLKSTON?


FAA INFORMATION EFFECTIVE 21 MAY 2020

Location

FAA Identifier: 3J6
Lat/Long: 30-47-46.9000N 082-01-41.4000W
30-47.781667N 082-01.690000W
30.7963611,-82.0281667
(estimated)
Elevation: 68 ft. / 21 m (estimated)
Variation: 03W (1985)
From city: 3 miles SW of FOLKSTON, GA
Time zone: UTC -4 (UTC -5 during Standard Time)
Zip code: 31537

Airport Operations

Airport use: Open to the public
Activation date: 11/1962
Control tower: no
ARTCC: JACKSONVILLE CENTER
FSS: MACON FLIGHT SERVICE STATION
NOTAMs facility: MCN (NOTAM-D service available)
Attendance: UNATNDD
Wind indicator: lighted
Segmented circle: yes
Lights: MIRL RWY 01/19 PRESET LOW INTST DUSK-2030; AFT 2030 ACTVT - CTAF.
Beacon: white-green (lighted land airport)
Operates sunset to sunrise.

Airport Communications

CTAF: 122.9

Nearby radio navigation aids

VOR radial/distance  VOR name  Freq  Var
TAYr060/32.2TAYLOR VORTAC112.9003W
SSIr247/33.6BRUNSWICK VORTAC109.8004W
VQQr352/(35.7)CECIL VOR117.9003W
CRGr319/38.3CRAIG VORTAC114.5003W
AYSr136/39.3WAYCROSS VORTAC110.2000E

Airport Services

Parking: tiedowns
Airframe service: NONE
Powerplant service: NONE
Bottled oxygen: NONE
Bulk oxygen: NONE

Runway Information

Runway 1/19

Dimensions: 2500 x 50 ft. / 762 x 15 m
Surface: asphalt, in good condition
Weight bearing capacity: 
Single wheel: 12.5
Runway edge lights: medium intensity
RUNWAY 1  RUNWAY 19
Latitude: 30-47.575833N30-47.988333N
Longitude: 082-01.694833W082-01.685000W
Traffic pattern: rightleft
Markings: basic, in good conditionbasic, in good condition
Obstructions: 42 ft. trees, 201 ft. from runway, 100 ft. left and right of centerline
+50 FT TREES 90 FT LEFT & RIGHT AT THLD
19 ft. trees, 580 ft. from runway, 100 ft. left of centerline, 20:1 slope to clear

Airport Ownership and Management from official FAA records

Ownership: Publicly-owned
Owner: CHARLTON COUNTY
68 KINGSLAND DR. STE B
FOLKSTON, GA 31537
Phone 912-496-2549
Manager: HAMPTON RAULERSON
68 KINSLAND DR., STE B
FOLKSTON, GA 31537
Phone (912) 886-3260

Airport Operational Statistics

Aircraft based on the field: 5
Single engine airplanes: 5
    
Aircraft operations: avg 61/week *
62% local general aviation
31% transient general aviation
6% military
* for 12-month period ending 01 November 2017

Additional Remarks

LGTD 272 FT AGL TOWER 1000 FT WEST.
FOR CD CTC JACKSONVILLE APCH AT 904-741-0284.

Instrument Procedures

There are no published instrument procedures at 3J6.

Some nearby airports with instrument procedures:

KJAX - Jacksonville International Airport (25 nm SE)
4J1 - Brantley County Airport (25 nm N)
KFHB - Fernandina Beach Municipal Airport (31 nm E)
KAYS - Waycross-Ware County Airport (33 nm NW)
KHEG - Herlong Recreational Airport (33 nm S)
 
Loc | Ops | Rwys | IFR | FBO | Links
Com | Nav | Svcs | Stats | Notes
Area around 3J6 (Davis Field Airport)
 
Road maps at: MapQuest Bing Google
 
Aerial photo
WARNING: Photo may not be current or correct
Aerial photo of 3J6 (Davis Field Airport)
Do you have a better or more recent aerial photo of Davis Field Airport that you would like to share? If so, please send us your photo.

 
Sectional chart

 
Airport distance calculator
Flying to Davis Field Airport? Find the distance to fly.

From to 3J6

Sunrise and sunset
Times for 07-Jun-2020
 Local
(UTC-4)
 Zulu
(UTC)
Morning civil twilight05:5809:58
Sunrise06:2610:26
Sunset20:2900:29
Evening civil twilight20:5600:56

Current date and time
Zulu (UTC)  07-Jun-2020 07:02:46
Local (UTC-4)  07-Jun-2020 03:02:46
 
METAR
KJAX 
25nm SE 
070656Z 08005KT 10SM FEW043 BKN070 BKN110 OVC140 24/22 A2994 RMK AO2 RAE32 SLP138 P0003 T02390222 $
KFHB 
31nm E 
070655Z AUTO 09007KT 10SM -RA SCT070 BKN090 OVC110 23/ A2995 RMK AO2 P0001 T0234////
KHEG 
33nm S 
070655Z AUTO 01004KT 6SM BR FEW044 SCT060 OVC075 23/23 A2996 RMK AO2
KAYS 
33nm NW 
070635Z AUTO 18006KT 10SM -RA SCT006 SCT027 OVC100 23/20 A2997 RMK AO2 T02300201 TSNO
KVQQ 
36nm S 
070655Z AUTO 00000KT 5SM BR FEW007 SCT047 OVC080 23/23 A2994 RMK AO2
KCRG 
38nm SE 
070653Z AUTO 12006KT 10SM FEW006 OVC080 22/22 A2995 RMK AO2 RAE34 SLP140 P0007 T02220222 $
KSSI 
39nm NE 
070653Z AUTO 17005KT 10SM -RA CLR 24/22 A2996 RMK AO2 SLP145 P0002 T02440222 $
KNIP 
39nm SE 
070653Z 09010KT 10SM -RA FEW055 OVC080 25/22 A2994 RMK AO2 RAE10B43 SLP134 T2 SET P0000 T02500222
KBQK 
40nm NE 
070655Z AUTO 17006KT 10SM -RA BKN110 24/23 A2996 RMK AO2 P0004 T02360226
KNRB 
40nm SE 
070652Z AUTO 09011KT 10SM BKN080 OVC100 23/23 A2994 RMK AO2 RAE49 SLP138 P0003 T02330228 $
TAF
KJAX 
25nm SE 
070520Z 0706/0806 13007KT 5SM SHRA BR SCT008 BKN015 OVC025 FM071500 15009KT 5SM SHRA VCTS SCT010 BKN020CB OVC030 FM072100 16009KT P6SM VCSH SCT015 BKN025 OVC040 FM080300 17007KT P6SM SCT025 BKN050 OVC100
NOTAMs
Click for the latest NOTAMs
NOTAMs are issued by the DoD/FAA and will open in a separate window not controlled by AirNav.

 

 
 

Would you like to see your business listed on this page?

 If your business provides an interesting product or service to pilots, flight crews, aircraft, or users of the Davis Field Airport, you should consider listing it here.  To start the listing process, click on the button below
 
Add a business
 

Other Pages about Davis Field Airport

Update a link
 
Copyright © AirNav, LLC. All rights reserved. Privacy Policy  Contact